sensor_id;sensor_type;location;lat;lon;timestamp;P1;durP1;ratioP1;P2;durP2;ratioP2
12768;SDS011;6448;48.916;8.990;2022-09-17T00:00:17;0.60;;;0.60;;
12768;SDS011;6448;48.916;8.990;2022-09-17T00:01:19;0.75;;;0.68;;
12768;SDS011;6448;48.916;8.990;2022-09-17T00:02:21;0.80;;;0.60;;
12768;SDS011;6448;48.916;8.990;2022-09-17T00:03:24;0.68;;;0.68;;
12768;SDS011;6448;48.916;8.990;2022-09-17T00:04:26;0.65;;;0.63;;
12768;SDS011;6448;48.916;8.990;2022-09-17T00:05:28;1.25;;;0.70;;
12768;SDS011;6448;48.916;8.990;2022-09-17T00:06:29;0.90;;;0.70;;
12768;SDS011;6448;48.916;8.990;2022-09-17T00:07:32;0.63;;;0.63;;
12768;SDS011;6448;48.916;8.990;2022-09-17T00:08:33;0.73;;;0.60;;
12768;SDS011;6448;48.916;8.990;2022-09-17T00:09:36;0.60;;;0.60;;
12768;SDS011;6448;48.916;8.990;2022-09-17T00:10:37;0.70;;;0.70;;
12768;SDS011;6448;48.916;8.990;2022-09-17T00:11:40;0.93;;;0.60;;
12768;SDS011;6448;48.916;8.990;2022-09-17T00:12:43;1.40;;;0.70;;
12768;SDS011;6448;48.916;8.990;2022-09-17T00:13:44;0.77;;;0.65;;
12768;SDS011;6448;48.916;8.990;2022-09-17T00:14:47;0.60;;;0.60;;
12768;SDS011;6448;48.916;8.990;2022-09-17T00:15:48;0.85;;;0.68;;
12768;SDS011;6448;48.916;8.990;2022-09-17T00:16:50;0.70;;;0.70;;
12768;SDS011;6448;48.916;8.990;2022-09-17T00:17:52;0.80;;;0.73;;
12768;SDS011;6448;48.916;8.990;2022-09-17T00:18:57;0.88;;;0.68;;
12768;SDS011;6448;48.916;8.990;2022-09-17T00:20:00;1.13;;;0.70;;
12768;SDS011;6448;48.916;8.990;2022-09-17T00:21:01;0.70;;;0.60;;
12768;SDS011;6448;48.916;8.990;2022-09-17T00:22:03;1.50;;;0.77;;
12768;SDS011;6448;48.916;8.990;2022-09-17T00:23:04;0.57;;;0.57;;
12768;SDS011;6448;48.916;8.990;2022-09-17T00:24:09;0.98;;;0.70;;
12768;SDS011;6448;48.916;8.990;2022-09-17T00:25:12;0.70;;;0.70;;
12768;SDS011;6448;48.916;8.990;2022-09-17T00:26:13;0.70;;;0.70;;
12768;SDS011;6448;48.916;8.990;2022-09-17T00:27:14;0.50;;;0.50;;
12768;SDS011;6448;48.916;8.990;2022-09-17T00:28:16;0.70;;;0.70;;
12768;SDS011;6448;48.916;8.990;2022-09-17T00:29:17;0.63;;;0.60;;
12768;SDS011;6448;48.916;8.990;2022-09-17T00:30:20;0.60;;;0.60;;
12768;SDS011;6448;48.916;8.990;2022-09-17T00:31:21;0.75;;;0.70;;
12768;SDS011;6448;48.916;8.990;2022-09-17T00:32:24;0.60;;;0.60;;
12768;SDS011;6448;48.916;8.990;2022-09-17T00:33:25;0.80;;;0.70;;
12768;SDS011;6448;48.916;8.990;2022-09-17T00:34:27;1.13;;;0.70;;
12768;SDS011;6448;48.916;8.990;2022-09-17T00:35:28;0.70;;;0.70;;
12768;SDS011;6448;48.916;8.990;2022-09-17T00:36:30;0.73;;;0.70;;
12768;SDS011;6448;48.916;8.990;2022-09-17T00:37:34;0.60;;;0.60;;
12768;SDS011;6448;48.916;8.990;2022-09-17T00:38:35;0.70;;;0.70;;
12768;SDS011;6448;48.916;8.990;2022-09-17T00:39:36;0.97;;;0.63;;
12768;SDS011;6448;48.916;8.990;2022-09-17T00:40:38;0.60;;;0.60;;
12768;SDS011;6448;48.916;8.990;2022-09-17T00:41:39;0.90;;;0.80;;
12768;SDS011;6448;48.916;8.990;2022-09-17T00:42:41;0.63;;;0.60;;
12768;SDS011;6448;48.916;8.990;2022-09-17T00:43:42;1.17;;;0.68;;
12768;SDS011;6448;48.916;8.990;2022-09-17T00:44:47;1.00;;;0.80;;
12768;SDS011;6448;48.916;8.990;2022-09-17T00:45:51;0.70;;;0.70;;
12768;SDS011;6448;48.916;8.990;2022-09-17T00:46:53;0.68;;;0.68;;
12768;SDS011;6448;48.916;8.990;2022-09-17T00:47:54;0.85;;;0.80;;
12768;SDS011;6448;48.916;8.990;2022-09-17T00:48:59;0.80;;;0.80;;
12768;SDS011;6448;48.916;8.990;2022-09-17T00:50:04;0.82;;;0.70;;
12768;SDS011;6448;48.916;8.990;2022-09-17T00:51:08;0.70;;;0.70;;
12768;SDS011;6448;48.916;8.990;2022-09-17T00:52:13;1.30;;;0.70;;
12768;SDS011;6448;48.916;8.990;2022-09-17T00:53:18;0.60;;;0.60;;
12768;SDS011;6448;48.916;8.990;2022-09-17T00:54:21;1.10;;;0.60;;
12768;SDS011;6448;48.916;8.990;2022-09-17T00:55:25;0.80;;;0.80;;
12768;SDS011;6448;48.916;8.990;2022-09-17T00:56:30;1.20;;;0.73;;
12768;SDS011;6448;48.916;8.990;2022-09-17T00:57:34;1.00;;;0.80;;
12768;SDS011;6448;48.916;8.990;2022-09-17T00:58:35;0.70;;;0.70;;
12768;SDS011;6448;48.916;8.990;2022-09-17T00:59:38;0.70;;;0.70;;
12768;SDS011;6448;48.916;8.990;2022-09-17T01:00:40;1.00;;;0.75;;
12768;SDS011;6448;48.916;8.990;2022-09-17T01:01:43;0.75;;;0.70;;
12768;SDS011;6448;48.916;8.990;2022-09-17T01:02:45;0.75;;;0.75;;
12768;SDS011;6448;48.916;8.990;2022-09-17T01:03:47;0.70;;;0.70;;
12768;SDS011;6448;48.916;8.990;2022-09-17T01:04:48;0.90;;;0.90;;
12768;SDS011;6448;48.916;8.990;2022-09-17T01:05:51;1.10;;;0.90;;
12768;SDS011;6448;48.916;8.990;2022-09-17T01:07:02;0.95;;;0.85;;
12768;SDS011;6448;48.916;8.990;2022-09-17T01:08:11;1.00;;;0.90;;
12768;SDS011;6448;48.916;8.990;2022-09-17T01:09:24;1.25;;;0.80;;
12768;SDS011;6448;48.916;8.990;2022-09-17T01:10:35;0.90;;;0.90;;
12768;SDS011;6448;48.916;8.990;2022-09-17T01:12:03;1.10;;;0.80;;
12768;SDS011;6448;48.916;8.990;2022-09-17T01:13:19;2.40;;;0.80;;
12768;SDS011;6448;48.916;8.990;2022-09-17T01:14:37;0.93;;;0.85;;
12768;SDS011;6448;48.916;8.990;2022-09-17T01:15:48;0.82;;;0.77;;
12768;SDS011;6448;48.916;8.990;2022-09-17T01:16:58;1.03;;;0.70;;
12768;SDS011;6448;48.916;8.990;2022-09-17T01:18:10;0.80;;;0.80;;
12768;SDS011;6448;48.916;8.990;2022-09-17T01:19:33;1.50;;;0.80;;
12768;SDS011;6448;48.916;8.990;2022-09-17T01:21:17;1.75;;;0.73;;
12768;SDS011;6448;48.916;8.990;2022-09-17T01:22:35;1.15;;;0.80;;
12768;SDS011;6448;48.916;8.990;2022-09-17T01:24:00;0.80;;;0.80;;
12768;SDS011;6448;48.916;8.990;2022-09-17T01:25:29;0.77;;;0.77;;
12768;SDS011;6448;48.916;8.990;2022-09-17T01:26:47;1.23;;;0.93;;
12768;SDS011;6448;48.916;8.990;2022-09-17T01:28:13;0.80;;;0.80;;
12768;SDS011;6448;48.916;8.990;2022-09-17T01:29:33;0.73;;;0.73;;
12768;SDS011;6448;48.916;8.990;2022-09-17T01:30:59;1.20;;;0.80;;
12768;SDS011;6448;48.916;8.990;2022-09-17T01:32:06;0.88;;;0.70;;
12768;SDS011;6448;48.916;8.990;2022-09-17T01:33:12;0.93;;;0.77;;
12768;SDS011;6448;48.916;8.990;2022-09-17T01:34:19;0.80;;;0.80;;
12768;SDS011;6448;48.916;8.990;2022-09-17T01:35:29;1.25;;;0.80;;
12768;SDS011;6448;48.916;8.990;2022-09-17T01:38:06;0.90;;;0.77;;
12768;SDS011;6448;48.916;8.990;2022-09-17T01:39:12;0.80;;;0.77;;
12768;SDS011;6448;48.916;8.990;2022-09-17T01:40:25;1.00;;;0.80;;
12768;SDS011;6448;48.916;8.990;2022-09-17T01:41:30;1.10;;;0.80;;
12768;SDS011;6448;48.916;8.990;2022-09-17T01:42:39;0.85;;;0.70;;
12768;SDS011;6448;48.916;8.990;2022-09-17T01:43:47;0.70;;;0.70;;
12768;SDS011;6448;48.916;8.990;2022-09-17T01:44:54;1.35;;;1.00;;
12768;SDS011;6448;48.916;8.990;2022-09-17T01:46:06;0.93;;;0.90;;
12768;SDS011;6448;48.916;8.990;2022-09-17T01:47:11;0.70;;;0.70;;
12768;SDS011;6448;48.916;8.990;2022-09-17T01:48:18;0.88;;;0.77;;
12768;SDS011;6448;48.916;8.990;2022-09-17T01:49:22;1.33;;;0.80;;
12768;SDS011;6448;48.916;8.990;2022-09-17T01:50:26;0.90;;;0.77;;
12768;SDS011;6448;48.916;8.990;2022-09-17T01:51:34;0.85;;;0.80;;
12768;SDS011;6448;48.916;8.990;2022-09-17T01:52:38;1.30;;;0.80;;
12768;SDS011;6448;48.916;8.990;2022-09-17T01:53:43;1.35;;;0.90;;
12768;SDS011;6448;48.916;8.990;2022-09-17T01:54:49;0.80;;;0.80;;
12768;SDS011;6448;48.916;8.990;2022-09-17T01:55:54;2.17;;;1.00;;
12768;SDS011;6448;48.916;8.990;2022-09-17T01:57:00;0.80;;;0.80;;
12768;SDS011;6448;48.916;8.990;2022-09-17T01:58:06;1.08;;;0.85;;
12768;SDS011;6448;48.916;8.990;2022-09-17T01:59:15;1.00;;;0.90;;
12768;SDS011;6448;48.916;8.990;2022-09-17T02:00:19;1.20;;;0.88;;
12768;SDS011;6448;48.916;8.990;2022-09-17T02:01:23;1.60;;;0.95;;
12768;SDS011;6448;48.916;8.990;2022-09-17T02:02:25;1.00;;;0.70;;
12768;SDS011;6448;48.916;8.990;2022-09-17T02:03:31;1.35;;;0.85;;
12768;SDS011;6448;48.916;8.990;2022-09-17T02:04:37;1.27;;;0.88;;
12768;SDS011;6448;48.916;8.990;2022-09-17T02:05:44;1.27;;;0.88;;
12768;SDS011;6448;48.916;8.990;2022-09-17T02:06:50;1.08;;;0.98;;
12768;SDS011;6448;48.916;8.990;2022-09-17T02:07:57;1.40;;;1.10;;
12768;SDS011;6448;48.916;8.990;2022-09-17T02:09:03;1.02;;;0.80;;
12768;SDS011;6448;48.916;8.990;2022-09-17T02:10:09;1.08;;;0.80;;
12768;SDS011;6448;48.916;8.990;2022-09-17T02:11:13;1.08;;;0.80;;
12768;SDS011;6448;48.916;8.990;2022-09-17T02:12:17;0.90;;;0.77;;
12768;SDS011;6448;48.916;8.990;2022-09-17T02:13:23;1.58;;;0.80;;
12768;SDS011;6448;48.916;8.990;2022-09-17T02:14:29;0.90;;;0.80;;
12768;SDS011;6448;48.916;8.990;2022-09-17T02:15:35;1.20;;;0.80;;
12768;SDS011;6448;48.916;8.990;2022-09-17T02:16:45;0.80;;;0.80;;
12768;SDS011;6448;48.916;8.990;2022-09-17T02:17:50;1.38;;;0.80;;
12768;SDS011;6448;48.916;8.990;2022-09-17T02:18:57;1.02;;;0.90;;
12768;SDS011;6448;48.916;8.990;2022-09-17T02:20:04;0.95;;;0.85;;
12768;SDS011;6448;48.916;8.990;2022-09-17T02:21:07;1.70;;;0.95;;
12768;SDS011;6448;48.916;8.990;2022-09-17T02:22:17;1.17;;;0.80;;
12768;SDS011;6448;48.916;8.990;2022-09-17T02:23:25;1.25;;;0.80;;
12768;SDS011;6448;48.916;8.990;2022-09-17T02:24:31;1.15;;;0.90;;
12768;SDS011;6448;48.916;8.990;2022-09-17T02:25:38;0.95;;;0.80;;
12768;SDS011;6448;48.916;8.990;2022-09-17T02:26:44;1.33;;;0.88;;
12768;SDS011;6448;48.916;8.990;2022-09-17T02:27:50;1.40;;;0.80;;
12768;SDS011;6448;48.916;8.990;2022-09-17T02:28:57;0.90;;;0.80;;
12768;SDS011;6448;48.916;8.990;2022-09-17T02:30:06;1.55;;;0.88;;
12768;SDS011;6448;48.916;8.990;2022-09-17T02:31:07;0.93;;;0.82;;
12768;SDS011;6448;48.916;8.990;2022-09-17T02:32:12;1.00;;;0.90;;
12768;SDS011;6448;48.916;8.990;2022-09-17T02:33:13;2.40;;;0.95;;
12768;SDS011;6448;48.916;8.990;2022-09-17T02:34:15;1.33;;;0.80;;
12768;SDS011;6448;48.916;8.990;2022-09-17T02:35:16;0.85;;;0.75;;
12768;SDS011;6448;48.916;8.990;2022-09-17T02:36:18;1.10;;;0.85;;
12768;SDS011;6448;48.916;8.990;2022-09-17T02:37:19;0.90;;;0.80;;
12768;SDS011;6448;48.916;8.990;2022-09-17T02:38:22;0.93;;;0.85;;
12768;SDS011;6448;48.916;8.990;2022-09-17T02:39:24;1.10;;;0.90;;
12768;SDS011;6448;48.916;8.990;2022-09-17T02:40:28;1.48;;;0.88;;
12768;SDS011;6448;48.916;8.990;2022-09-17T02:41:35;0.98;;;0.80;;
12768;SDS011;6448;48.916;8.990;2022-09-17T02:42:56;1.55;;;0.95;;
12768;SDS011;6448;48.916;8.990;2022-09-17T02:44:09;0.90;;;0.90;;
12768;SDS011;6448;48.916;8.990;2022-09-17T02:45:24;0.93;;;0.80;;
12768;SDS011;6448;48.916;8.990;2022-09-17T02:46:39;0.80;;;0.80;;
12768;SDS011;6448;48.916;8.990;2022-09-17T02:47:58;1.30;;;0.80;;
12768;SDS011;6448;48.916;8.990;2022-09-17T02:49:09;1.40;;;0.80;;
12768;SDS011;6448;48.916;8.990;2022-09-17T02:51:50;0.80;;;0.80;;
12768;SDS011;6448;48.916;8.990;2022-09-17T02:53:04;0.90;;;0.77;;
12768;SDS011;6448;48.916;8.990;2022-09-17T02:54:15;1.40;;;0.80;;
12768;SDS011;6448;48.916;8.990;2022-09-17T02:55:26;0.80;;;0.75;;
12768;SDS011;6448;48.916;8.990;2022-09-17T02:56:36;1.02;;;0.80;;
12768;SDS011;6448;48.916;8.990;2022-09-17T02:57:45;1.15;;;0.80;;
12768;SDS011;6448;48.916;8.990;2022-09-17T02:58:55;1.05;;;0.80;;
12768;SDS011;6448;48.916;8.990;2022-09-17T03:00:01;1.55;;;0.90;;
12768;SDS011;6448;48.916;8.990;2022-09-17T03:01:09;0.85;;;0.80;;
12768;SDS011;6448;48.916;8.990;2022-09-17T03:02:17;2.10;;;0.90;;
12768;SDS011;6448;48.916;8.990;2022-09-17T03:03:25;1.50;;;0.90;;
12768;SDS011;6448;48.916;8.990;2022-09-17T03:04:29;1.20;;;0.80;;
12768;SDS011;6448;48.916;8.990;2022-09-17T03:05:34;1.92;;;0.80;;
12768;SDS011;6448;48.916;8.990;2022-09-17T03:06:37;1.40;;;0.80;;
12768;SDS011;6448;48.916;8.990;2022-09-17T03:07:39;0.88;;;0.80;;
12768;SDS011;6448;48.916;8.990;2022-09-17T03:08:41;1.10;;;0.90;;
12768;SDS011;6448;48.916;8.990;2022-09-17T03:09:42;0.85;;;0.80;;
12768;SDS011;6448;48.916;8.990;2022-09-17T03:10:43;1.30;;;0.90;;
12768;SDS011;6448;48.916;8.990;2022-09-17T03:11:46;0.95;;;0.88;;
12768;SDS011;6448;48.916;8.990;2022-09-17T03:12:47;1.10;;;1.00;;
12768;SDS011;6448;48.916;8.990;2022-09-17T03:13:49;1.02;;;0.90;;
12768;SDS011;6448;48.916;8.990;2022-09-17T03:14:49;1.02;;;0.88;;
12768;SDS011;6448;48.916;8.990;2022-09-17T03:15:51;1.58;;;0.80;;
12768;SDS011;6448;48.916;8.990;2022-09-17T03:16:52;0.70;;;0.70;;
12768;SDS011;6448;48.916;8.990;2022-09-17T03:17:54;1.02;;;0.90;;
12768;SDS011;6448;48.916;8.990;2022-09-17T03:18:56;1.00;;;0.90;;
12768;SDS011;6448;48.916;8.990;2022-09-17T03:19:58;1.50;;;1.00;;
12768;SDS011;6448;48.916;8.990;2022-09-17T03:20:58;1.25;;;0.88;;
12768;SDS011;6448;48.916;8.990;2022-09-17T03:22:00;0.85;;;0.80;;
12768;SDS011;6448;48.916;8.990;2022-09-17T03:23:01;1.10;;;0.77;;
12768;SDS011;6448;48.916;8.990;2022-09-17T03:24:03;0.98;;;0.77;;
12768;SDS011;6448;48.916;8.990;2022-09-17T03:25:04;1.17;;;0.80;;
12768;SDS011;6448;48.916;8.990;2022-09-17T03:26:06;1.00;;;0.80;;
12768;SDS011;6448;48.916;8.990;2022-09-17T03:27:07;1.35;;;1.00;;
12768;SDS011;6448;48.916;8.990;2022-09-17T03:28:09;1.20;;;0.90;;
12768;SDS011;6448;48.916;8.990;2022-09-17T03:29:10;1.10;;;0.90;;
12768;SDS011;6448;48.916;8.990;2022-09-17T03:30:11;1.27;;;0.80;;
12768;SDS011;6448;48.916;8.990;2022-09-17T03:31:12;1.17;;;0.80;;
12768;SDS011;6448;48.916;8.990;2022-09-17T03:32:14;1.00;;;0.80;;
12768;SDS011;6448;48.916;8.990;2022-09-17T03:33:15;1.50;;;1.00;;
12768;SDS011;6448;48.916;8.990;2022-09-17T03:34:18;0.70;;;0.70;;
12768;SDS011;6448;48.916;8.990;2022-09-17T03:35:20;1.20;;;0.70;;
12768;SDS011;6448;48.916;8.990;2022-09-17T03:36:21;1.05;;;0.90;;
12768;SDS011;6448;48.916;8.990;2022-09-17T03:37:23;1.40;;;0.82;;
12768;SDS011;6448;48.916;8.990;2022-09-17T03:38:24;1.20;;;1.10;;
12768;SDS011;6448;48.916;8.990;2022-09-17T03:39:26;1.05;;;0.80;;
12768;SDS011;6448;48.916;8.990;2022-09-17T03:40:27;1.17;;;0.82;;
12768;SDS011;6448;48.916;8.990;2022-09-17T03:41:29;1.00;;;0.90;;
12768;SDS011;6448;48.916;8.990;2022-09-17T03:42:30;1.08;;;0.80;;
12768;SDS011;6448;48.916;8.990;2022-09-17T03:43:32;2.55;;;1.05;;
12768;SDS011;6448;48.916;8.990;2022-09-17T03:44:33;0.80;;;0.70;;
12768;SDS011;6448;48.916;8.990;2022-09-17T03:45:34;1.45;;;1.05;;
12768;SDS011;6448;48.916;8.990;2022-09-17T03:46:35;1.25;;;0.98;;
12768;SDS011;6448;48.916;8.990;2022-09-17T03:47:37;1.00;;;0.93;;
12768;SDS011;6448;48.916;8.990;2022-09-17T03:48:38;1.52;;;0.90;;
12768;SDS011;6448;48.916;8.990;2022-09-17T03:49:41;1.27;;;0.82;;
12768;SDS011;6448;48.916;8.990;2022-09-17T03:50:42;0.80;;;0.70;;
12768;SDS011;6448;48.916;8.990;2022-09-17T03:51:44;1.80;;;0.90;;
12768;SDS011;6448;48.916;8.990;2022-09-17T03:52:44;1.15;;;0.90;;
12768;SDS011;6448;48.916;8.990;2022-09-17T03:53:46;1.63;;;0.90;;
12768;SDS011;6448;48.916;8.990;2022-09-17T03:54:47;1.48;;;0.90;;
12768;SDS011;6448;48.916;8.990;2022-09-17T03:55:49;1.20;;;0.90;;
12768;SDS011;6448;48.916;8.990;2022-09-17T03:56:50;1.00;;;0.90;;
12768;SDS011;6448;48.916;8.990;2022-09-17T03:57:51;0.98;;;0.88;;
12768;SDS011;6448;48.916;8.990;2022-09-17T03:58:55;1.25;;;0.90;;
12768;SDS011;6448;48.916;8.990;2022-09-17T03:59:58;1.90;;;1.00;;
12768;SDS011;6448;48.916;8.990;2022-09-17T04:00:58;2.30;;;0.90;;
12768;SDS011;6448;48.916;8.990;2022-09-17T04:02:02;0.90;;;0.80;;
12768;SDS011;6448;48.916;8.990;2022-09-17T04:03:03;1.08;;;0.85;;
12768;SDS011;6448;48.916;8.990;2022-09-17T04:04:05;1.00;;;0.85;;
12768;SDS011;6448;48.916;8.990;2022-09-17T04:05:08;2.30;;;0.90;;
12768;SDS011;6448;48.916;8.990;2022-09-17T04:06:10;1.27;;;0.90;;
12768;SDS011;6448;48.916;8.990;2022-09-17T04:07:11;1.25;;;1.00;;
12768;SDS011;6448;48.916;8.990;2022-09-17T04:08:13;1.63;;;1.00;;
12768;SDS011;6448;48.916;8.990;2022-09-17T04:09:14;1.85;;;0.98;;
12768;SDS011;6448;48.916;8.990;2022-09-17T04:10:16;1.30;;;0.90;;
12768;SDS011;6448;48.916;8.990;2022-09-17T04:11:17;1.00;;;0.73;;
12768;SDS011;6448;48.916;8.990;2022-09-17T04:12:19;1.00;;;0.88;;
12768;SDS011;6448;48.916;8.990;2022-09-17T04:13:20;1.70;;;0.90;;
12768;SDS011;6448;48.916;8.990;2022-09-17T04:14:22;0.82;;;0.70;;
12768;SDS011;6448;48.916;8.990;2022-09-17T04:15:23;1.35;;;0.90;;
12768;SDS011;6448;48.916;8.990;2022-09-17T04:16:24;1.60;;;1.20;;
12768;SDS011;6448;48.916;8.990;2022-09-17T04:17:26;1.10;;;0.98;;
12768;SDS011;6448;48.916;8.990;2022-09-17T04:18:28;1.23;;;1.00;;
12768;SDS011;6448;48.916;8.990;2022-09-17T04:19:28;1.63;;;0.93;;
12768;SDS011;6448;48.916;8.990;2022-09-17T04:20:31;1.10;;;0.95;;
12768;SDS011;6448;48.916;8.990;2022-09-17T04:21:32;1.20;;;0.90;;
12768;SDS011;6448;48.916;8.990;2022-09-17T04:22:34;1.17;;;0.90;;
12768;SDS011;6448;48.916;8.990;2022-09-17T04:23:35;0.90;;;0.90;;
12768;SDS011;6448;48.916;8.990;2022-09-17T04:24:36;1.17;;;0.90;;
12768;SDS011;6448;48.916;8.990;2022-09-17T04:25:37;2.70;;;1.00;;
12768;SDS011;6448;48.916;8.990;2022-09-17T04:26:39;1.23;;;0.98;;
12768;SDS011;6448;48.916;8.990;2022-09-17T04:27:40;1.10;;;0.90;;
12768;SDS011;6448;48.916;8.990;2022-09-17T04:28:42;2.28;;;0.98;;
12768;SDS011;6448;48.916;8.990;2022-09-17T04:29:42;1.20;;;1.00;;
12768;SDS011;6448;48.916;8.990;2022-09-17T04:30:44;1.03;;;0.90;;
12768;SDS011;6448;48.916;8.990;2022-09-17T04:31:46;1.25;;;1.05;;
12768;SDS011;6448;48.916;8.990;2022-09-17T04:32:48;1.10;;;0.90;;
12768;SDS011;6448;48.916;8.990;2022-09-17T04:33:49;1.00;;;0.90;;
12768;SDS011;6448;48.916;8.990;2022-09-17T04:34:51;0.80;;;0.80;;
12768;SDS011;6448;48.916;8.990;2022-09-17T04:35:53;1.20;;;1.10;;
12768;SDS011;6448;48.916;8.990;2022-09-17T04:36:54;1.02;;;0.80;;
12768;SDS011;6448;48.916;8.990;2022-09-17T04:37:56;1.10;;;1.00;;
12768;SDS011;6448;48.916;8.990;2022-09-17T04:38:58;3.40;;;1.10;;
12768;SDS011;6448;48.916;8.990;2022-09-17T04:39:59;1.48;;;1.00;;
12768;SDS011;6448;48.916;8.990;2022-09-17T04:41:01;0.95;;;0.90;;
12768;SDS011;6448;48.916;8.990;2022-09-17T04:42:02;1.30;;;0.90;;
12768;SDS011;6448;48.916;8.990;2022-09-17T04:43:04;1.77;;;1.00;;
12768;SDS011;6448;48.916;8.990;2022-09-17T04:44:05;1.85;;;1.00;;
12768;SDS011;6448;48.916;8.990;2022-09-17T04:45:07;0.90;;;0.80;;
12768;SDS011;6448;48.916;8.990;2022-09-17T04:46:08;1.38;;;1.02;;
12768;SDS011;6448;48.916;8.990;2022-09-17T04:47:10;1.65;;;1.00;;
12768;SDS011;6448;48.916;8.990;2022-09-17T04:48:10;1.95;;;1.20;;
12768;SDS011;6448;48.916;8.990;2022-09-17T04:49:12;1.48;;;1.02;;
12768;SDS011;6448;48.916;8.990;2022-09-17T04:50:13;1.65;;;1.02;;
12768;SDS011;6448;48.916;8.990;2022-09-17T04:51:16;2.25;;;1.10;;
12768;SDS011;6448;48.916;8.990;2022-09-17T04:52:18;1.20;;;0.90;;
12768;SDS011;6448;48.916;8.990;2022-09-17T04:53:19;1.83;;;1.00;;
12768;SDS011;6448;48.916;8.990;2022-09-17T04:54:20;1.40;;;1.00;;
12768;SDS011;6448;48.916;8.990;2022-09-17T04:55:21;1.15;;;0.90;;
12768;SDS011;6448;48.916;8.990;2022-09-17T04:56:23;1.70;;;1.00;;
12768;SDS011;6448;48.916;8.990;2022-09-17T04:57:24;1.27;;;1.00;;
12768;SDS011;6448;48.916;8.990;2022-09-17T04:58:26;1.50;;;0.90;;
12768;SDS011;6448;48.916;8.990;2022-09-17T04:59:30;2.03;;;1.05;;
12768;SDS011;6448;48.916;8.990;2022-09-17T05:00:31;1.30;;;1.00;;
12768;SDS011;6448;48.916;8.990;2022-09-17T05:01:34;1.20;;;1.00;;
12768;SDS011;6448;48.916;8.990;2022-09-17T05:02:36;1.40;;;1.00;;
12768;SDS011;6448;48.916;8.990;2022-09-17T05:03:36;1.40;;;1.00;;
12768;SDS011;6448;48.916;8.990;2022-09-17T05:04:38;2.90;;;1.05;;
12768;SDS011;6448;48.916;8.990;2022-09-17T05:05:39;2.10;;;0.98;;
12768;SDS011;6448;48.916;8.990;2022-09-17T05:06:42;1.80;;;1.05;;
12768;SDS011;6448;48.916;8.990;2022-09-17T05:07:43;1.73;;;1.20;;
12768;SDS011;6448;48.916;8.990;2022-09-17T05:08:45;1.73;;;1.00;;
12768;SDS011;6448;48.916;8.990;2022-09-17T05:09:46;2.00;;;1.20;;
12768;SDS011;6448;48.916;8.990;2022-09-17T05:10:48;1.60;;;1.10;;
12768;SDS011;6448;48.916;8.990;2022-09-17T05:11:49;1.45;;;1.20;;
12768;SDS011;6448;48.916;8.990;2022-09-17T05:12:51;1.58;;;1.10;;
12768;SDS011;6448;48.916;8.990;2022-09-17T05:13:53;1.63;;;1.13;;
12768;SDS011;6448;48.916;8.990;2022-09-17T05:14:55;1.23;;;1.00;;
12768;SDS011;6448;48.916;8.990;2022-09-17T05:15:56;1.70;;;1.20;;
12768;SDS011;6448;48.916;8.990;2022-09-17T05:16:58;1.75;;;1.20;;
12768;SDS011;6448;48.916;8.990;2022-09-17T05:17:59;1.20;;;0.95;;
12768;SDS011;6448;48.916;8.990;2022-09-17T05:19:00;1.30;;;1.10;;
12768;SDS011;6448;48.916;8.990;2022-09-17T05:20:01;1.70;;;1.10;;
12768;SDS011;6448;48.916;8.990;2022-09-17T05:21:03;1.95;;;1.20;;
12768;SDS011;6448;48.916;8.990;2022-09-17T05:22:06;1.67;;;1.07;;
12768;SDS011;6448;48.916;8.990;2022-09-17T05:23:07;1.30;;;1.10;;
12768;SDS011;6448;48.916;8.990;2022-09-17T05:24:08;1.75;;;1.05;;
12768;SDS011;6448;48.916;8.990;2022-09-17T05:25:10;2.80;;;1.13;;
12768;SDS011;6448;48.916;8.990;2022-09-17T05:26:11;1.88;;;1.10;;
12768;SDS011;6448;48.916;8.990;2022-09-17T05:27:13;1.52;;;1.00;;
12768;SDS011;6448;48.916;8.990;2022-09-17T05:28:14;1.85;;;1.20;;
12768;SDS011;6448;48.916;8.990;2022-09-17T05:29:16;1.30;;;1.00;;
12768;SDS011;6448;48.916;8.990;2022-09-17T05:30:17;1.88;;;1.13;;
12768;SDS011;6448;48.916;8.990;2022-09-17T05:31:19;1.40;;;1.10;;
12768;SDS011;6448;48.916;8.990;2022-09-17T05:32:19;1.40;;;1.10;;
12768;SDS011;6448;48.916;8.990;2022-09-17T05:33:21;1.27;;;1.00;;
12768;SDS011;6448;48.916;8.990;2022-09-17T05:34:22;1.33;;;1.03;;
12768;SDS011;6448;48.916;8.990;2022-09-17T05:35:24;1.60;;;1.20;;
12768;SDS011;6448;48.916;8.990;2022-09-17T05:36:24;1.23;;;1.00;;
12768;SDS011;6448;48.916;8.990;2022-09-17T05:37:28;1.45;;;1.10;;
12768;SDS011;6448;48.916;8.990;2022-09-17T05:38:28;1.25;;;1.15;;
12768;SDS011;6448;48.916;8.990;2022-09-17T05:39:30;1.77;;;1.10;;
12768;SDS011;6448;48.916;8.990;2022-09-17T05:40:32;2.10;;;1.10;;
12768;SDS011;6448;48.916;8.990;2022-09-17T05:41:33;1.42;;;1.10;;
12768;SDS011;6448;48.916;8.990;2022-09-17T05:42:34;1.20;;;1.10;;
12768;SDS011;6448;48.916;8.990;2022-09-17T05:43:36;1.10;;;1.00;;
12768;SDS011;6448;48.916;8.990;2022-09-17T05:44:37;2.22;;;1.10;;
12768;SDS011;6448;48.916;8.990;2022-09-17T05:45:38;2.05;;;1.13;;
12768;SDS011;6448;48.916;8.990;2022-09-17T05:46:39;1.80;;;1.15;;
12768;SDS011;6448;48.916;8.990;2022-09-17T05:47:41;2.03;;;1.08;;
12768;SDS011;6448;48.916;8.990;2022-09-17T05:48:42;2.03;;;1.05;;
12768;SDS011;6448;48.916;8.990;2022-09-17T05:49:43;2.30;;;1.23;;
12768;SDS011;6448;48.916;8.990;2022-09-17T05:50:44;1.80;;;1.30;;
12768;SDS011;6448;48.916;8.990;2022-09-17T05:51:46;1.55;;;1.20;;
12768;SDS011;6448;48.916;8.990;2022-09-17T05:52:50;2.50;;;1.45;;
12768;SDS011;6448;48.916;8.990;2022-09-17T05:53:52;2.50;;;1.13;;
12768;SDS011;6448;48.916;8.990;2022-09-17T05:54:54;1.73;;;1.13;;
12768;SDS011;6448;48.916;8.990;2022-09-17T05:55:56;1.67;;;1.20;;
12768;SDS011;6448;48.916;8.990;2022-09-17T05:56:57;1.40;;;1.10;;
12768;SDS011;6448;48.916;8.990;2022-09-17T05:57:59;1.73;;;1.20;;
12768;SDS011;6448;48.916;8.990;2022-09-17T05:59:00;1.48;;;1.20;;
12768;SDS011;6448;48.916;8.990;2022-09-17T06:00:02;1.70;;;1.15;;
12768;SDS011;6448;48.916;8.990;2022-09-17T06:01:12;1.65;;;1.10;;
12768;SDS011;6448;48.916;8.990;2022-09-17T06:02:15;1.27;;;1.00;;
12768;SDS011;6448;48.916;8.990;2022-09-17T06:03:16;1.63;;;1.10;;
12768;SDS011;6448;48.916;8.990;2022-09-17T06:04:21;1.30;;;1.00;;
12768;SDS011;6448;48.916;8.990;2022-09-17T06:05:22;1.48;;;1.10;;
12768;SDS011;6448;48.916;8.990;2022-09-17T06:06:24;2.03;;;1.20;;
12768;SDS011;6448;48.916;8.990;2022-09-17T06:07:28;1.70;;;1.20;;
12768;SDS011;6448;48.916;8.990;2022-09-17T06:08:32;1.35;;;1.20;;
12768;SDS011;6448;48.916;8.990;2022-09-17T06:09:34;1.88;;;1.20;;
12768;SDS011;6448;48.916;8.990;2022-09-17T06:10:37;1.40;;;1.20;;
12768;SDS011;6448;48.916;8.990;2022-09-17T06:11:39;4.53;;;1.25;;
12768;SDS011;6448;48.916;8.990;2022-09-17T06:12:41;1.73;;;1.13;;
12768;SDS011;6448;48.916;8.990;2022-09-17T06:13:41;1.77;;;1.00;;
12768;SDS011;6448;48.916;8.990;2022-09-17T06:14:43;1.83;;;1.23;;
12768;SDS011;6448;48.916;8.990;2022-09-17T06:15:48;1.75;;;1.20;;
12768;SDS011;6448;48.916;8.990;2022-09-17T06:16:51;1.88;;;1.08;;
12768;SDS011;6448;48.916;8.990;2022-09-17T06:17:51;1.63;;;1.15;;
12768;SDS011;6448;48.916;8.990;2022-09-17T06:18:53;2.15;;;1.10;;
12768;SDS011;6448;48.916;8.990;2022-09-17T06:19:54;1.52;;;1.10;;
12768;SDS011;6448;48.916;8.990;2022-09-17T06:20:57;2.08;;;1.20;;
12768;SDS011;6448;48.916;8.990;2022-09-17T06:21:59;1.63;;;1.15;;
12768;SDS011;6448;48.916;8.990;2022-09-17T06:23:00;1.30;;;1.10;;
12768;SDS011;6448;48.916;8.990;2022-09-17T06:24:03;1.25;;;1.08;;
12768;SDS011;6448;48.916;8.990;2022-09-17T06:25:05;1.88;;;1.17;;
12768;SDS011;6448;48.916;8.990;2022-09-17T06:26:06;1.98;;;1.30;;
12768;SDS011;6448;48.916;8.990;2022-09-17T06:27:08;1.35;;;1.00;;
12768;SDS011;6448;48.916;8.990;2022-09-17T06:28:09;2.00;;;1.20;;
12768;SDS011;6448;48.916;8.990;2022-09-17T06:29:11;2.75;;;1.27;;
12768;SDS011;6448;48.916;8.990;2022-09-17T06:30:14;2.05;;;1.20;;
12768;SDS011;6448;48.916;8.990;2022-09-17T06:31:16;2.80;;;1.30;;
12768;SDS011;6448;48.916;8.990;2022-09-17T06:32:16;1.77;;;1.10;;
12768;SDS011;6448;48.916;8.990;2022-09-17T06:33:18;1.77;;;1.10;;